Terminal Aerodrome Forecast
Issued by NWS

Home | Current Version | Previous Version | Text Only | Print | Product List | Glossary On
Versions: 1 2 3 4 5 6 7 8 9 10 11 12 13 14 15
912
FTUS42 KTBW 252320
TAFPIE
TAF
KPIE 252320Z 2600/2624 13007KT P6SM SCT030 SCT050 BKN100
     FM261400 13012G20KT 6SM -RA VCTS SCT025CB BKN035
     FM261800 13014G24KT 5SM -RA VCTS FEW006 SCT015CB BKN025=

USA.gov is the U.S. government's official web portal to all federal, state and local government web resources and services.